Swanson Ranch 3, NV

2:17 PM PDT en Septiembre 02, 2014 (GMT -0700)
RAWS RED BUTTE NV US | Change Station
CLOSE
Current Station
Estación meteorológica personal
Location: Austin, NV
Altura: 5025 ft
Estaciones meteorológicas cercanas

Alt 5025 ft 39.99 °N, 117.32 °W | Updated 38 minutes ago

Despejado
Despejado
90 ° F
Sensación térmica 86 ° F
N
10
Viento Variable Viento desde ONO
Gusts 17.0 mph

Hoy
Alta -- | Baja -- ° F
--% Posibilidad de precipitaciones
Ayer
Alta -- | Baja -- ° F
Precip. -- pul
6:18 AM 7:19 PM
Cuarto creciente, 55% visible
Presión 29.73 pul
Visibilidad -9999.0 Millas
Nubes
Índice de calor 86 ° F
Punto de rocío 33 ° F
Humedad 13%
Precipitaciones 0.00 pul
Espesor de la nieve No disponible.
UV No disponible.
Polen 8.10 de una escala de 12
Calidad del aire No disponible.
Flu Activity No disponible.
METAR KP68 022053Z AUTO VRB03KT 32/M03 A2999 RMK AO1 SLP067 T03171028 58026

More Conditions Fewer Conditions

Presión 29.73 pul
Visibilidad -9999.0 Millas
Nubes
Índice de calor 86 ° F
Punto de rocío 33 ° F
Humedad 13%
Precipitaciones 0.00 pul
Espesor de la nieve No disponible.
UV No disponible.
Polen 8.10 de una escala de 12
Calidad del aire No disponible.
Flu Activity No disponible.
METAR KP68 022053Z AUTO VRB03KT 32/M03 A2999 RMK AO1 SLP067 T03171028 58026

More Conditions Fewer Conditions

10-Day Weather Forecast

Almanac

Astronomía

Sep. 02, 2014 Salida Puesta
Hora real 6:18 AM PDT 7:19 PM PDT
Crepúsculo civil 5:50 AM PDT 7:46 PM PDT
Crepúsculo náutico 5:17 AM PDT 8:19 PM PDT
Crepúsculo astronómico 4:43 AM PDT 8:54 PM PDT
Luna 2:06 PM PDT Sin puesta de luna
Horas de luz 13h 56m
Horas de luz
13h 00m
Tomorrow will be 2m 31s shorter.
Cuarto creciente, 55% of the Moon is Illuminated
Hoy
Cuarto creciente
Sep 8
Luna llena
Sep 15
Cuarto menguante
Sep 24
Nueva
Oct 1
Cuarto creciente

Extremos de hoy

Máximos del estado Bajos del estado

Community

WunderPhotos

Upload Photos

1,749,769 ¡fotos cargadas!

Nearby

Grosos de nieve

Estación Profundido Altura
Diamond Peak 0 in 8000 ft
Lamance Creek 0 in 6000 ft
Taylor Canyon 1 in 6200 ft
Granite Peak 0 in 7800 ft
Buckskin Lower 2 in 6700 ft

Actividad de terremotos

Ciudad Distance Mag. Tiempo y dato
No hay informes recientes de la actividad sísmica.
Magnitud mínima muestra es 2,5.

Temperaturas de aguas costeras

Lugar Temperatura
Sin partes meteorológicos de las estaciones

Estaciones meteorológicas cercanas